createdAt,value
2022-10-22T00:01:17.893Z,100326.34
2022-10-22T00:03:45.815Z,100323.59
2022-10-22T00:06:14.171Z,100324.63
2022-10-22T00:08:42.196Z,100319.97
2022-10-22T00:11:11.559Z,100318.03
2022-10-22T00:13:41.146Z,100322.13
2022-10-22T00:16:09.867Z,100314.09
2022-10-22T00:18:38.495Z,100314.88
2022-10-22T00:21:07.712Z,100329.41
2022-10-22T00:23:35.993Z,100335.78
2022-10-22T00:26:04.060Z,100353.09
2022-10-22T00:28:32.052Z,100340.50
2022-10-22T00:31:02.696Z,100347.44
2022-10-22T00:33:31.092Z,100355.09
2022-10-22T00:35:59.423Z,100349.84
2022-10-22T00:38:27.752Z,100329.41
2022-10-22T00:40:56.087Z,100338.38
2022-10-22T00:43:24.016Z,100333.97
2022-10-22T00:45:51.963Z,100322.50
2022-10-22T00:48:24.102Z,100320.59
2022-10-22T00:50:55.562Z,100315.47
2022-10-22T00:53:27.516Z,100329.59
2022-10-22T00:55:55.733Z,100333.41
2022-10-22T00:58:27.071Z,100332.66
2022-10-22T01:00:55.924Z,100333.81
2022-10-22T01:03:25.287Z,100339.53
2022-10-22T01:05:57.914Z,100317.59
2022-10-22T01:08:33.983Z,100335.53
2022-10-22T01:11:11.167Z,100332.38
2022-10-22T01:13:50.443Z,100335.34
2022-10-22T01:16:23.314Z,100325.47
2022-10-22T01:19:00.622Z,100335.13
2022-10-22T01:21:35.490Z,100337.91
2022-10-22T01:24:20.601Z,100340.50
2022-10-22T01:27:01.578Z,100338.97
2022-10-22T01:29:34.624Z,100332.94
2022-10-22T01:32:08.218Z,100330.81
2022-10-22T01:34:38.992Z,100321.13
2022-10-22T01:37:08.058Z,100339.13
2022-10-22T01:39:39.590Z,100336.88
2022-10-22T01:42:07.465Z,100336.28
2022-10-22T01:44:37.702Z,100346.41
2022-10-22T01:47:16.192Z,100349.06
2022-10-22T01:50:19.173Z,100345.44
2022-10-22T01:53:04.682Z,100336.19
2022-10-22T01:55:37.360Z,100329.03
2022-10-22T01:58:20.599Z,100323.97
2022-10-22T02:00:58.124Z,100325.00
2022-10-22T02:03:30.210Z,100327.91
2022-10-22T02:06:05.854Z,100334.09
2022-10-22T02:08:36.738Z,100326.34
2022-10-22T02:11:05.941Z,100317.97
2022-10-22T02:13:38.498Z,100314.03
2022-10-22T02:16:10.633Z,100319.94
2022-10-22T02:18:42.876Z,100333.03
2022-10-22T02:21:10.957Z,100325.97
2022-10-22T02:23:39.765Z,100340.84
2022-10-22T02:26:15.607Z,100309.81
2022-10-22T02:28:50.469Z,100322.22
2022-10-22T02:31:24.513Z,100310.09
2022-10-22T02:33:57.475Z,100323.88
2022-10-22T02:36:26.880Z,100335.13
2022-10-22T02:38:55.946Z,100333.50
2022-10-22T02:41:24.501Z,100341.81
2022-10-22T02:43:55.712Z,100337.41
2022-10-22T02:46:26.703Z,100338.97
2022-10-22T02:48:54.572Z,100328.66
2022-10-22T02:51:22.427Z,100322.53
2022-10-22T02:53:50.299Z,100339.13
2022-10-22T02:56:18.204Z,100312.50
2022-10-22T02:58:46.044Z,100348.03
2022-10-22T03:01:16.143Z,100353.84
2022-10-22T03:03:45.631Z,100361.69
2022-10-22T03:06:13.635Z,100368.47
2022-10-22T03:08:41.770Z,100365.59
2022-10-22T03:11:09.692Z,100360.16
2022-10-22T03:13:37.760Z,100346.50
2022-10-22T03:16:06.130Z,100351.00
2022-10-22T03:18:34.028Z,100355.00
2022-10-22T03:21:10.852Z,100353.94
2022-10-22T03:23:39.826Z,100358.81
2022-10-22T03:26:09.154Z,100357.38
2022-10-22T03:28:38.010Z,100365.31
2022-10-22T03:31:06.057Z,100368.84
2022-10-22T03:33:33.937Z,100353.25
2022-10-22T03:36:01.884Z,100355.16
2022-10-22T03:38:31.759Z,100363.38
2022-10-22T03:40:59.904Z,100357.34
2022-10-22T03:43:28.341Z,100359.06
2022-10-22T03:45:56.222Z,100326.38
2022-10-22T03:48:24.232Z,100353.56
2022-10-22T03:50:52.105Z,100359.38
2022-10-22T03:53:19.944Z,100373.88
2022-10-22T03:55:49.232Z,100367.97
2022-10-22T03:58:17.256Z,100375.72
2022-10-22T04:00:45.181Z,100383.47
2022-10-22T04:03:13.092Z,100386.88
2022-10-22T04:05:41.055Z,100384.03
2022-10-22T04:08:09.092Z,100383.28
2022-10-22T04:10:37.067Z,100380.16
2022-10-22T04:13:06.305Z,100387.88
2022-10-22T04:15:34.279Z,100344.78
2022-10-22T04:18:02.126Z,100386.53
2022-10-22T04:20:30.014Z,100382.50
2022-10-22T04:22:57.928Z,100389.91
2022-10-22T04:25:25.746Z,100384.81
2022-10-22T04:27:53.672Z,100391.69
2022-10-22T04:30:22.835Z,100397.25
2022-10-22T04:32:50.686Z,100392.53
2022-10-22T04:35:18.566Z,100388.91
2022-10-22T04:37:46.627Z,100386.34
2022-10-22T04:40:14.513Z,100409.94
2022-10-22T04:42:42.405Z,100401.53
2022-10-22T04:45:11.384Z,100411.28
2022-10-22T04:47:40.906Z,100414.56
2022-10-22T04:50:09.595Z,100408.72
2022-10-22T04:52:37.443Z,100417.81
2022-10-22T04:55:06.122Z,100421.34
2022-10-22T04:57:34.166Z,100413.91
2022-10-22T05:00:02.156Z,100409.59
2022-10-22T05:02:30.042Z,100400.13
2022-10-22T05:04:59.293Z,100406.59
2022-10-22T05:07:27.191Z,100397.03
2022-10-22T05:09:55.397Z,100400.59
2022-10-22T05:12:23.270Z,100412.13
2022-10-22T05:14:51.140Z,100403.63
2022-10-22T05:17:19.009Z,100396.75
2022-10-22T05:19:46.894Z,100411.94
2022-10-22T05:22:16.153Z,100412.13
2022-10-22T05:24:43.978Z,100416.72
2022-10-22T05:27:12.329Z,100415.84
2022-10-22T05:29:40.236Z,100414.97
2022-10-22T05:32:08.146Z,100413.09
2022-10-22T05:34:36.281Z,100414.81
2022-10-22T05:37:04.142Z,100414.97
2022-10-22T05:39:36.575Z,100423.09
2022-10-22T05:42:04.916Z,100407.78
2022-10-22T05:44:32.865Z,100423.94
2022-10-22T05:47:00.800Z,100420.50
2022-10-22T05:49:28.628Z,100428.13
2022-10-22T05:51:56.511Z,100437.00
2022-10-22T05:54:24.374Z,100440.25
2022-10-22T05:56:54.300Z,100438.53
2022-10-22T05:59:22.184Z,100434.03
2022-10-22T06:01:50.120Z,100448.19
2022-10-22T06:04:18.027Z,100448.19
2022-10-22T06:06:47.909Z,100451.81
2022-10-22T06:09:19.317Z,100449.91
2022-10-22T06:11:48.753Z,100452.22
2022-10-22T06:14:18.805Z,100459.16
2022-10-22T06:16:46.888Z,100462.22
2022-10-22T06:19:16.985Z,100466.91
2022-10-22T06:21:45.379Z,100466.44
2022-10-22T06:24:14.446Z,100460.41
2022-10-22T06:26:42.598Z,100458.97
2022-10-22T06:29:11.298Z,100481.44
2022-10-22T06:31:40.552Z,100488.50
2022-10-22T06:34:12.637Z,100487.38
2022-10-22T06:39:15.269Z,100485.69
2022-10-22T06:41:43.196Z,100503.19
2022-10-22T06:44:15.530Z,100502.59
2022-10-22T06:46:45.114Z,100501.91
2022-10-22T06:49:14.944Z,100510.66
2022-10-22T06:51:43.232Z,100506.00
2022-10-22T06:54:11.547Z,100509.75
2022-10-22T06:56:39.491Z,100513.47
2022-10-22T06:59:07.456Z,100520.03
2022-10-22T07:01:37.043Z,100519.94
2022-10-22T07:04:06.883Z,100526.25
2022-10-22T07:06:34.891Z,100531.66
2022-10-22T07:09:03.066Z,100533.75
2022-10-22T07:11:38.658Z,100534.03
2022-10-22T07:14:06.818Z,100538.16
2022-10-22T07:16:34.858Z,100540.09
2022-10-22T07:19:03.731Z,100538.38
2022-10-22T07:21:33.560Z,100545.72
2022-10-22T07:24:02.081Z,100538.34
2022-10-22T07:26:32.518Z,100542.97
2022-10-22T07:29:00.966Z,100541.59
2022-10-22T07:31:29.289Z,100546.94
2022-10-22T07:33:58.058Z,100544.88
2022-10-22T07:36:26.233Z,100544.47
2022-10-22T07:39:00.567Z,100544.47
2022-10-22T07:41:29.968Z,100544.09
2022-10-22T07:43:58.385Z,100544.00
2022-10-22T07:46:27.083Z,100548.28
2022-10-22T07:48:55.009Z,100550.75
2022-10-22T07:51:23.159Z,100549.56
2022-10-22T07:53:51.116Z,100539.38
2022-10-22T07:56:20.372Z,100549.47
2022-10-22T07:58:48.371Z,100544.59
2022-10-22T08:01:16.360Z,100551.59
2022-10-22T08:03:44.304Z,100556.34
2022-10-22T08:06:14.406Z,100549.41
2022-10-22T08:08:43.431Z,100558.78
2022-10-22T08:11:12.707Z,100546.63
2022-10-22T08:13:45.370Z,100559.25
2022-10-22T08:16:14.356Z,100563.13
2022-10-22T08:18:42.648Z,100568.75
2022-10-22T08:21:10.735Z,100551.59
2022-10-22T08:23:38.814Z,100563.91
2022-10-22T08:26:07.257Z,100570.84
2022-10-22T08:28:37.175Z,100559.53
2022-10-22T08:31:08.623Z,100568.72
2022-10-22T08:33:38.672Z,100572.75
2022-10-22T08:36:07.707Z,100569.09
2022-10-22T08:38:35.693Z,100572.16
2022-10-22T08:41:10.784Z,100573.59
2022-10-22T08:43:49.157Z,100581.03
2022-10-22T08:46:34.854Z,100573.53
2022-10-22T08:49:06.018Z,100571.69
2022-10-22T08:51:36.897Z,100568.63
2022-10-22T08:54:20.258Z,100575.47
2022-10-22T08:56:56.176Z,100574.34
2022-10-22T08:59:30.712Z,100586.38
2022-10-22T09:02:00.582Z,100579.91
2022-10-22T09:04:34.671Z,100586.25
2022-10-22T09:07:02.595Z,100581.84
2022-10-22T09:09:35.271Z,100587.19
2022-10-22T09:12:05.310Z,100586.72
2022-10-22T09:14:33.211Z,100583.06
2022-10-22T09:17:17.180Z,100586.50
2022-10-22T09:19:59.321Z,100579.41
2022-10-22T09:25:20.880Z,100586.44
2022-10-22T09:27:49.609Z,100589.88
2022-10-22T09:30:19.632Z,100585.34
2022-10-22T09:32:52.040Z,100591.88
2022-10-22T09:35:25.256Z,100593.31
2022-10-22T09:37:55.508Z,100604.16
2022-10-22T09:40:24.781Z,100594.13
2022-10-22T09:42:52.676Z,100594.06
2022-10-22T09:45:24.148Z,100593.50
2022-10-22T09:48:10.666Z,100595.94
2022-10-22T09:50:43.921Z,100599.94
2022-10-22T09:53:19.590Z,100606.78
2022-10-22T09:55:52.091Z,100610.75
2022-10-22T09:58:21.280Z,100611.16
2022-10-22T10:00:54.915Z,100610.41
2022-10-22T10:03:26.901Z,100612.72
2022-10-22T10:06:01.543Z,100609.28
2022-10-22T10:08:33.119Z,100617.75
2022-10-22T10:11:06.791Z,100611.75
2022-10-22T10:13:47.898Z,100625.06
2022-10-22T10:16:30.390Z,100610.09
2022-10-22T10:19:14.727Z,100622.13
2022-10-22T10:21:55.427Z,100613.22
2022-10-22T10:24:32.887Z,100605.22
2022-10-22T10:27:06.226Z,100618.47
2022-10-22T10:29:44.713Z,100615.34
2022-10-22T10:32:28.980Z,100611.81
2022-10-22T10:35:12.458Z,100614.81
2022-10-22T10:37:47.451Z,100605.81
2022-10-22T10:40:34.318Z,100606.81
2022-10-22T10:43:11.063Z,100612.56
2022-10-22T10:45:48.860Z,100621.03
2022-10-22T10:48:41.303Z,100616.03
2022-10-22T10:51:19.728Z,100627.03
2022-10-22T10:54:08.852Z,100628.09
2022-10-22T10:56:42.682Z,100626.72
2022-10-22T10:59:19.447Z,100631.34
2022-10-22T11:02:09.218Z,100642.97
2022-10-22T11:05:05.802Z,100628.97
2022-10-22T11:07:41.913Z,100642.66
2022-10-22T11:10:20.613Z,100641.78
2022-10-22T11:12:52.689Z,100634.34
2022-10-22T11:15:28.465Z,100639.91
2022-10-22T11:18:03.361Z,100635.94
2022-10-22T11:20:42.165Z,100633.38
2022-10-22T11:23:20.577Z,100639.53
2022-10-22T11:25:51.150Z,100626.59
2022-10-22T11:28:25.441Z,100639.59
2022-10-22T11:31:00.486Z,100641.59
2022-10-22T11:33:36.025Z,100640.06
2022-10-22T11:36:06.122Z,100632.47
2022-10-22T11:38:36.691Z,100641.69
2022-10-22T11:41:08.723Z,100643.78
2022-10-22T11:43:57.017Z,100636.53
2022-10-22T11:46:35.983Z,100648.94
2022-10-22T11:49:17.382Z,100642.56
2022-10-22T11:51:46.951Z,100639.38
2022-10-22T11:54:42.728Z,100646.25
2022-10-22T11:57:20.474Z,100653.47
2022-10-22T11:59:58.337Z,100645.47
2022-10-22T12:02:49.874Z,100641.31
2022-10-22T12:05:45.389Z,100645.25
2022-10-22T12:08:27.446Z,100646.38
2022-10-22T12:11:07.502Z,100651.41
2022-10-22T12:13:58.480Z,100641.06
2022-10-22T12:16:32.420Z,100646.09
2022-10-22T12:19:16.491Z,100634.84
2022-10-22T12:21:48.893Z,100637.63
2022-10-22T12:24:20.072Z,100642.59
2022-10-22T12:26:52.539Z,100639.13
2022-10-22T12:29:23.985Z,100642.94
2022-10-22T12:31:51.924Z,100635.84
2022-10-22T12:34:23.991Z,100635.91
2022-10-22T12:36:54.926Z,100638.31
2022-10-22T12:39:27.586Z,100636.69
2022-10-22T12:41:56.936Z,100631.09
2022-10-22T12:44:24.962Z,100635.06
2022-10-22T12:46:56.049Z,100629.75
2022-10-22T12:49:34.522Z,100632.81
2022-10-22T12:52:08.620Z,100632.56
2022-10-22T12:54:40.205Z,100625.41
2022-10-22T12:57:15.523Z,100632.94
2022-10-22T12:59:48.818Z,100624.81
2022-10-22T13:02:22.435Z,100630.25
2022-10-22T13:05:21.747Z,100627.38
2022-10-22T13:07:52.565Z,100627.47
2022-10-22T13:10:26.158Z,100630.06
2022-10-22T13:12:58.245Z,100632.88
2022-10-22T13:15:40.568Z,100626.22
2022-10-22T13:18:18.709Z,100628.22
2022-10-22T13:20:55.034Z,100627.47
2022-10-22T13:23:25.466Z,100629.47
2022-10-22T13:26:02.613Z,100617.72
2022-10-22T13:28:33.675Z,100637.88
2022-10-22T13:31:04.355Z,100644.25
2022-10-22T13:33:37.051Z,100638.28
2022-10-22T13:36:06.363Z,100655.66
2022-10-22T13:38:34.383Z,100656.50
2022-10-22T13:41:03.204Z,100665.97
2022-10-22T13:43:32.533Z,100662.56
2022-10-22T13:46:01.559Z,100669.03
2022-10-22T13:48:31.480Z,100662.28
2022-10-22T13:50:59.451Z,100670.13
2022-10-22T13:53:30.180Z,100666.66
2022-10-22T13:55:58.186Z,100667.69
2022-10-22T13:58:26.254Z,100666.44
2022-10-22T14:00:57.862Z,100664.59
2022-10-22T14:03:29.137Z,100671.72
2022-10-22T14:05:57.274Z,100654.56
2022-10-22T14:08:26.774Z,100658.47
2022-10-22T14:10:54.769Z,100664.00
2022-10-22T14:13:22.958Z,100653.81
2022-10-22T14:15:52.676Z,100659.50
2022-10-22T14:18:26.573Z,100651.75
2022-10-22T14:20:56.093Z,100664.25
2022-10-22T14:23:27.331Z,100662.78
2022-10-22T14:25:55.410Z,100669.38
2022-10-22T14:28:23.424Z,100669.47
2022-10-22T14:30:52.539Z,100666.16
2022-10-22T14:33:28.779Z,100677.91
2022-10-22T14:35:58.403Z,100671.44
2022-10-22T14:38:26.370Z,100676.94
2022-10-22T14:40:54.681Z,100667.72
2022-10-22T14:43:25.248Z,100671.06
2022-10-22T14:45:53.281Z,100678.31
2022-10-22T14:48:21.511Z,100669.91
2022-10-22T14:50:51.414Z,100679.81
2022-10-22T14:53:19.451Z,100677.22
2022-10-22T14:55:49.189Z,100671.75
2022-10-22T14:58:17.264Z,100683.63
2022-10-22T15:00:45.231Z,100685.03
2022-10-22T15:03:13.428Z,100684.75
2022-10-22T15:05:44.219Z,100688.19
2022-10-22T15:08:15.575Z,100686.75
2022-10-22T15:10:43.568Z,100694.16
2022-10-22T15:13:11.772Z,100704.00
2022-10-22T15:15:41.142Z,100706.25
2022-10-22T15:18:09.186Z,100704.25
2022-10-22T15:20:37.171Z,100703.41
2022-10-22T15:23:05.164Z,100720.16
2022-10-22T15:25:34.522Z,100722.66
2022-10-22T15:28:09.429Z,100720.47
2022-10-22T15:30:38.203Z,100721.34
2022-10-22T15:33:07.306Z,100715.97
2022-10-22T15:35:35.355Z,100715.00
2022-10-22T15:38:06.417Z,100737.66
2022-10-22T15:40:35.782Z,100736.34
2022-10-22T15:43:03.867Z,100742.06
2022-10-22T15:45:31.826Z,100738.28
2022-10-22T15:47:59.712Z,100744.66
2022-10-22T15:50:27.862Z,100741.38
2022-10-22T15:52:55.783Z,100743.16
2022-10-22T15:55:23.988Z,100752.72
2022-10-22T15:57:58.049Z,100741.88
2022-10-22T16:00:28.502Z,100758.16
2022-10-22T16:02:56.435Z,100755.31
2022-10-22T16:05:24.389Z,100758.44
2022-10-22T16:07:55.641Z,100763.41
2022-10-22T16:10:24.428Z,100762.91
2022-10-22T16:12:54.509Z,100771.78
2022-10-22T16:15:23.780Z,100779.41
2022-10-22T16:17:52.966Z,100781.53
2022-10-22T16:20:20.913Z,100783.66
2022-10-22T16:22:50.952Z,100792.72
2022-10-22T16:25:18.877Z,100787.34
2022-10-22T16:27:50.399Z,100787.53
2022-10-22T16:30:18.890Z,100799.28
2022-10-22T16:32:48.179Z,100797.44
2022-10-22T16:35:16.363Z,100794.97
2022-10-22T16:37:44.426Z,100809.50
2022-10-22T16:40:13.844Z,100806.19
2022-10-22T16:42:42.017Z,100800.06
2022-10-22T16:45:10.848Z,100808.84
2022-10-22T16:47:38.916Z,100805.88
2022-10-22T16:50:09.390Z,100811.31
2022-10-22T16:52:37.420Z,100810.34
2022-10-22T16:55:05.874Z,100824.50
2022-10-22T16:57:33.917Z,100812.34
2022-10-22T17:00:01.888Z,100815.38
2022-10-22T17:02:29.882Z,100807.94
2022-10-22T17:04:57.854Z,100808.50
2022-10-22T17:07:27.175Z,100817.34
2022-10-22T17:09:55.127Z,100811.56
2022-10-22T17:12:23.121Z,100818.22
2022-10-22T17:14:51.131Z,100823.56
2022-10-22T17:17:19.032Z,100811.63
2022-10-22T17:19:46.950Z,100807.91
2022-10-22T17:22:17.623Z,100816.41
2022-10-22T17:24:47.782Z,100820.28
2022-10-22T17:27:15.729Z,100826.66
2022-10-22T17:29:43.739Z,100826.84
2022-10-22T17:32:11.769Z,100827.28
2022-10-22T17:34:40.166Z,100825.84
2022-10-22T17:37:08.107Z,100827.06
2022-10-22T17:39:36.131Z,100840.38
2022-10-22T17:42:06.210Z,100836.13
2022-10-22T17:44:34.114Z,100839.00
2022-10-22T17:47:02.107Z,100855.84
2022-10-22T17:49:30.019Z,100851.25
2022-10-22T17:51:57.969Z,100842.28
2022-10-22T17:54:26.056Z,100853.06
2022-10-22T17:56:53.985Z,100855.84
2022-10-22T17:59:23.381Z,100853.94
2022-10-22T18:01:51.509Z,100859.53
2022-10-22T18:04:20.793Z,100852.22
2022-10-22T18:06:49.505Z,100857.81
2022-10-22T18:09:19.424Z,100864.19
2022-10-22T18:11:47.896Z,100853.38
2022-10-22T18:14:17.468Z,100861.88
2022-10-22T18:16:47.506Z,100860.75
2022-10-22T18:19:17.315Z,100862.31
2022-10-22T18:21:45.595Z,100868.78
2022-10-22T18:24:15.400Z,100879.41
2022-10-22T18:26:43.678Z,100873.38
2022-10-22T18:29:14.528Z,100871.88
2022-10-22T18:31:42.497Z,100872.16
2022-10-22T18:34:12.117Z,100869.16
2022-10-22T18:36:41.594Z,100880.50
2022-10-22T18:39:09.701Z,100884.00
2022-10-22T18:41:37.672Z,100879.91
2022-10-22T18:44:06.841Z,100889.16
2022-10-22T18:46:38.297Z,100892.84
2022-10-22T18:49:07.991Z,100893.81
2022-10-22T18:51:37.751Z,100889.19
2022-10-22T18:54:21.698Z,100893.34
2022-10-22T18:56:50.502Z,100888.13
2022-10-22T18:59:19.744Z,100886.41
2022-10-22T19:01:47.665Z,100879.50
2022-10-22T19:04:15.793Z,100877.44
2022-10-22T19:06:46.026Z,100889.34
2022-10-22T19:09:14.826Z,100885.81
2022-10-22T19:11:43.845Z,100893.81
2022-10-22T19:14:11.738Z,100881.53
2022-10-22T19:16:39.642Z,100897.66
2022-10-22T19:19:08.414Z,100895.75
2022-10-22T19:21:37.510Z,100900.91
2022-10-22T19:24:07.688Z,100893.06
2022-10-22T19:26:35.691Z,100891.00
2022-10-22T19:29:05.424Z,100887.72
2022-10-22T19:31:33.617Z,100905.88
2022-10-22T19:34:03.127Z,100902.00
2022-10-22T19:36:32.681Z,100905.88
2022-10-22T19:39:01.734Z,100906.34
2022-10-22T19:41:32.638Z,100914.47
2022-10-22T19:44:01.518Z,100917.16
2022-10-22T19:46:32.557Z,100914.88
2022-10-22T19:49:00.888Z,100922.22
2022-10-22T19:51:30.818Z,100913.28
2022-10-22T19:54:00.390Z,100923.91
2022-10-22T19:56:29.612Z,100912.19
2022-10-22T19:58:59.494Z,100907.78
2022-10-22T20:01:28.117Z,100916.16
2022-10-22T20:03:56.180Z,100910.06
2022-10-22T20:06:24.926Z,100902.66
2022-10-22T20:08:55.974Z,100921.28
2022-10-22T20:11:25.990Z,100924.16
2022-10-22T20:13:54.790Z,100922.72
2022-10-22T20:16:28.294Z,100929.88
2022-10-22T20:18:59.756Z,100931.63
2022-10-22T20:21:28.393Z,100932.00
2022-10-22T20:23:57.405Z,100936.13
2022-10-22T20:26:28.112Z,100925.28
2022-10-22T20:28:57.009Z,100930.75
2022-10-22T20:31:28.566Z,100931.59
2022-10-22T20:33:58.566Z,100945.13
2022-10-22T20:36:28.764Z,100938.69
2022-10-22T20:39:01.199Z,100940.88
2022-10-22T20:41:29.890Z,100936.88
2022-10-22T20:43:57.811Z,100930.19
2022-10-22T20:46:30.101Z,100942.38
2022-10-22T20:49:01.238Z,100945.50
2022-10-22T20:51:29.308Z,100938.31
2022-10-22T20:53:57.264Z,100942.25
2022-10-22T20:56:25.338Z,100947.97
2022-10-22T20:59:03.975Z,100944.88
2022-10-22T21:01:36.386Z,100949.19
2022-10-22T21:04:04.738Z,100951.69
2022-10-22T21:06:32.972Z,100947.66
2022-10-22T21:09:01.002Z,100944.72
2022-10-22T21:11:28.998Z,100944.91
2022-10-22T21:13:56.862Z,100943.63
2022-10-22T21:16:24.737Z,100938.84
2022-10-22T21:18:54.013Z,100945.50
2022-10-22T21:21:21.884Z,100955.63
2022-10-22T21:23:51.089Z,100954.25
2022-10-22T21:26:19.373Z,100951.31
2022-10-22T21:28:47.787Z,100945.22
2022-10-22T21:31:21.834Z,100951.66
2022-10-22T21:33:50.879Z,100957.00
2022-10-22T21:36:23.035Z,100951.44
2022-10-22T21:38:52.056Z,100952.31
2022-10-22T21:41:22.104Z,100949.34
2022-10-22T21:43:50.622Z,100946.66
2022-10-22T21:46:20.815Z,100953.13
2022-10-22T21:48:53.039Z,100942.72
2022-10-22T21:51:23.373Z,100938.59
2022-10-22T21:56:22.546Z,100938.84
2022-10-22T21:58:50.439Z,100944.09
2022-10-22T22:01:18.482Z,100942.53
2022-10-22T22:03:48.996Z,100941.91
2022-10-22T22:06:21.279Z,100928.47
2022-10-22T22:08:52.777Z,100944.19
2022-10-22T22:11:23.447Z,100941.69
2022-10-22T22:13:52.419Z,100933.81
2022-10-22T22:16:28.196Z,100928.78
2022-10-22T22:18:57.244Z,100929.91
2022-10-22T22:21:25.221Z,100935.25
2022-10-22T22:23:54.496Z,100924.09
2022-10-22T22:26:29.635Z,100936.59
2022-10-22T22:28:58.348Z,100933.50
2022-10-22T22:31:28.478Z,100938.84
2022-10-22T22:34:00.291Z,100942.03
2022-10-22T22:36:28.333Z,100943.97
2022-10-22T22:38:57.825Z,100945.94
2022-10-22T22:41:25.720Z,100941.53
2022-10-22T22:43:56.565Z,100938.25
2022-10-22T22:46:24.504Z,100942.72
2022-10-22T22:48:52.746Z,100949.06
2022-10-22T22:51:20.730Z,100945.47
2022-10-22T22:53:48.867Z,100944.53
2022-10-22T22:56:19.856Z,100947.38
2022-10-22T22:58:48.148Z,100943.28
2022-10-22T23:01:18.087Z,100946.88
2022-10-22T23:03:48.078Z,100945.38
2022-10-22T23:06:16.967Z,100943.78
2022-10-22T23:08:45.100Z,100935.38
2022-10-22T23:11:14.833Z,100955.50
2022-10-22T23:13:44.653Z,100956.75
2022-10-22T23:16:15.740Z,100939.91
2022-10-22T23:18:43.822Z,100947.56
2022-10-22T23:21:14.493Z,100947.84
2022-10-22T23:23:44.738Z,100953.19
2022-10-22T23:26:14.034Z,100947.28
2022-10-22T23:28:42.229Z,100944.25
2022-10-22T23:31:14.613Z,100948.16
2022-10-22T23:33:42.653Z,100943.97
2022-10-22T23:36:11.211Z,100934.59
2022-10-22T23:38:40.873Z,100950.31
2022-10-22T23:41:09.333Z,100944.09
2022-10-22T23:43:38.523Z,100941.50
2022-10-22T23:46:07.636Z,100934.44
2022-10-22T23:48:37.530Z,100935.16
2022-10-22T23:51:06.441Z,100940.50
2022-10-22T23:53:34.609Z,100936.81
2022-10-22T23:56:05.276Z,100937.78
2022-10-22T23:58:33.795Z,100936.03
